sensor_id;sensor_type;location;lat;lon;timestamp;temperature;humidity
15834;DHT22;8017;50.812;4.934;2023-04-09T00:02:45;7.50;99.90
15834;DHT22;8017;50.812;4.934;2023-04-09T00:05:47;7.40;99.90
15834;DHT22;8017;50.812;4.934;2023-04-09T00:08:50;7.30;99.90
15834;DHT22;8017;50.812;4.934;2023-04-09T00:11:52;7.30;99.90
15834;DHT22;8017;50.812;4.934;2023-04-09T00:14:54;7.20;99.90
15834;DHT22;8017;50.812;4.934;2023-04-09T00:17:56;7.10;99.90
15834;DHT22;8017;50.812;4.934;2023-04-09T00:20:58;7.10;99.90
15834;DHT22;8017;50.812;4.934;2023-04-09T00:24:01;7.10;99.90
15834;DHT22;8017;50.812;4.934;2023-04-09T00:27:03;7.10;99.90
15834;DHT22;8017;50.812;4.934;2023-04-09T00:30:06;7.00;99.90
15834;DHT22;8017;50.812;4.934;2023-04-09T00:33:08;7.00;99.90
15834;DHT22;8017;50.812;4.934;2023-04-09T00:36:10;6.90;99.90
15834;DHT22;8017;50.812;4.934;2023-04-09T00:39:14;6.90;99.90
15834;DHT22;8017;50.812;4.934;2023-04-09T00:42:15;7.00;99.90
15834;DHT22;8017;50.812;4.934;2023-04-09T00:45:17;7.10;99.90
15834;DHT22;8017;50.812;4.934;2023-04-09T00:48:19;7.10;99.90
15834;DHT22;8017;50.812;4.934;2023-04-09T00:51:21;7.10;99.90
15834;DHT22;8017;50.812;4.934;2023-04-09T00:54:25;7.00;99.90
15834;DHT22;8017;50.812;4.934;2023-04-09T00:57:27;6.90;99.90
15834;DHT22;8017;50.812;4.934;2023-04-09T01:00:29;6.80;99.90
15834;DHT22;8017;50.812;4.934;2023-04-09T01:03:31;6.70;99.90
15834;DHT22;8017;50.812;4.934;2023-04-09T01:06:40;6.70;99.90
15834;DHT22;8017;50.812;4.934;2023-04-09T01:09:49;6.70;99.90
15834;DHT22;8017;50.812;4.934;2023-04-09T01:12:59;6.70;99.90
15834;DHT22;8017;50.812;4.934;2023-04-09T01:16:05;6.70;99.90
15834;DHT22;8017;50.812;4.934;2023-04-09T01:19:14;6.60;99.90
15834;DHT22;8017;50.812;4.934;2023-04-09T01:22:37;6.60;99.90
15834;DHT22;8017;50.812;4.934;2023-04-09T01:25:52;6.50;99.90
15834;DHT22;8017;50.812;4.934;2023-04-09T01:29:02;6.50;99.90
15834;DHT22;8017;50.812;4.934;2023-04-09T01:32:06;6.50;99.90
15834;DHT22;8017;50.812;4.934;2023-04-09T01:35:09;6.50;99.90
15834;DHT22;8017;50.812;4.934;2023-04-09T01:38:11;6.50;99.90
15834;DHT22;8017;50.812;4.934;2023-04-09T01:41:17;6.50;99.90
15834;DHT22;8017;50.812;4.934;2023-04-09T01:44:20;6.50;99.90
15834;DHT22;8017;50.812;4.934;2023-04-09T01:47:25;6.50;99.90
15834;DHT22;8017;50.812;4.934;2023-04-09T01:50:28;6.50;99.90
15834;DHT22;8017;50.812;4.934;2023-04-09T01:53:30;6.40;99.90
15834;DHT22;8017;50.812;4.934;2023-04-09T01:56:42;6.50;99.90
15834;DHT22;8017;50.812;4.934;2023-04-09T01:59:46;6.40;99.90
15834;DHT22;8017;50.812;4.934;2023-04-09T02:03:03;6.40;99.90
15834;DHT22;8017;50.812;4.934;2023-04-09T02:06:11;6.30;99.90
15834;DHT22;8017;50.812;4.934;2023-04-09T02:09:16;6.40;99.90
15834;DHT22;8017;50.812;4.934;2023-04-09T02:12:19;6.40;99.90
15834;DHT22;8017;50.812;4.934;2023-04-09T02:15:23;6.40;99.90
15834;DHT22;8017;50.812;4.934;2023-04-09T02:18:28;6.40;99.90
15834;DHT22;8017;50.812;4.934;2023-04-09T02:21:31;6.50;99.90
15834;DHT22;8017;50.812;4.934;2023-04-09T02:24:33;6.40;99.90
15834;DHT22;8017;50.812;4.934;2023-04-09T02:27:35;6.40;99.90
15834;DHT22;8017;50.812;4.934;2023-04-09T02:30:39;6.30;99.90
15834;DHT22;8017;50.812;4.934;2023-04-09T02:33:41;6.30;99.90
15834;DHT22;8017;50.812;4.934;2023-04-09T02:36:43;6.20;99.90
15834;DHT22;8017;50.812;4.934;2023-04-09T02:39:44;6.10;99.90
15834;DHT22;8017;50.812;4.934;2023-04-09T02:42:46;6.10;99.90
15834;DHT22;8017;50.812;4.934;2023-04-09T02:45:49;6.10;99.90
15834;DHT22;8017;50.812;4.934;2023-04-09T02:48:51;6.00;99.90
15834;DHT22;8017;50.812;4.934;2023-04-09T02:51:53;6.10;99.90
15834;DHT22;8017;50.812;4.934;2023-04-09T02:54:55;6.10;99.90
15834;DHT22;8017;50.812;4.934;2023-04-09T02:57:57;6.00;99.90
15834;DHT22;8017;50.812;4.934;2023-04-09T03:01:00;6.00;99.90
15834;DHT22;8017;50.812;4.934;2023-04-09T03:04:02;5.90;99.90
15834;DHT22;8017;50.812;4.934;2023-04-09T03:07:04;5.90;99.90
15834;DHT22;8017;50.812;4.934;2023-04-09T03:10:07;5.90;99.90
15834;DHT22;8017;50.812;4.934;2023-04-09T03:13:08;5.90;99.90
15834;DHT22;8017;50.812;4.934;2023-04-09T03:16:12;6.00;99.90
15834;DHT22;8017;50.812;4.934;2023-04-09T03:19:14;6.00;99.90
15834;DHT22;8017;50.812;4.934;2023-04-09T03:22:16;6.00;99.90
15834;DHT22;8017;50.812;4.934;2023-04-09T03:25:18;6.00;99.90
15834;DHT22;8017;50.812;4.934;2023-04-09T03:28:20;5.90;99.90
15834;DHT22;8017;50.812;4.934;2023-04-09T03:31:23;5.90;99.90
15834;DHT22;8017;50.812;4.934;2023-04-09T03:34:25;5.90;99.90
15834;DHT22;8017;50.812;4.934;2023-04-09T03:37:27;5.90;99.90
15834;DHT22;8017;50.812;4.934;2023-04-09T03:40:29;5.80;99.90
15834;DHT22;8017;50.812;4.934;2023-04-09T03:43:32;5.80;99.90
15834;DHT22;8017;50.812;4.934;2023-04-09T03:46:35;5.70;99.90
15834;DHT22;8017;50.812;4.934;2023-04-09T03:49:37;5.70;99.90
15834;DHT22;8017;50.812;4.934;2023-04-09T03:52:39;5.60;99.90
15834;DHT22;8017;50.812;4.934;2023-04-09T03:55:41;5.60;99.90
15834;DHT22;8017;50.812;4.934;2023-04-09T03:58:43;5.60;99.90
15834;DHT22;8017;50.812;4.934;2023-04-09T04:01:46;5.60;99.90
15834;DHT22;8017;50.812;4.934;2023-04-09T04:04:48;5.60;99.90
15834;DHT22;8017;50.812;4.934;2023-04-09T04:07:50;5.50;99.90
15834;DHT22;8017;50.812;4.934;2023-04-09T04:10:52;5.50;99.90
15834;DHT22;8017;50.812;4.934;2023-04-09T04:13:54;5.50;99.90
15834;DHT22;8017;50.812;4.934;2023-04-09T04:16:57;5.50;99.90
15834;DHT22;8017;50.812;4.934;2023-04-09T04:19:59;5.40;99.90
15834;DHT22;8017;50.812;4.934;2023-04-09T04:23:01;5.50;99.90
15834;DHT22;8017;50.812;4.934;2023-04-09T04:26:06;5.40;99.90
15834;DHT22;8017;50.812;4.934;2023-04-09T04:29:09;5.40;99.90
15834;DHT22;8017;50.812;4.934;2023-04-09T04:32:12;5.50;99.90
15834;DHT22;8017;50.812;4.934;2023-04-09T04:35:14;5.40;99.90
15834;DHT22;8017;50.812;4.934;2023-04-09T04:38:16;5.40;99.90
15834;DHT22;8017;50.812;4.934;2023-04-09T04:41:18;5.30;99.90
15834;DHT22;8017;50.812;4.934;2023-04-09T04:44:20;5.20;99.90
15834;DHT22;8017;50.812;4.934;2023-04-09T04:47:23;5.20;99.90
15834;DHT22;8017;50.812;4.934;2023-04-09T04:50:25;5.20;99.90
15834;DHT22;8017;50.812;4.934;2023-04-09T04:53:27;5.20;99.90
15834;DHT22;8017;50.812;4.934;2023-04-09T04:56:29;5.20;99.90
15834;DHT22;8017;50.812;4.934;2023-04-09T04:59:31;5.20;99.90
15834;DHT22;8017;50.812;4.934;2023-04-09T05:02:34;5.20;99.90
15834;DHT22;8017;50.812;4.934;2023-04-09T05:05:36;5.10;99.90
15834;DHT22;8017;50.812;4.934;2023-04-09T05:08:38;5.10;99.90
15834;DHT22;8017;50.812;4.934;2023-04-09T05:11:41;5.10;99.90
15834;DHT22;8017;50.812;4.934;2023-04-09T05:14:43;5.20;99.90
15834;DHT22;8017;50.812;4.934;2023-04-09T05:17:46;5.10;99.90
15834;DHT22;8017;50.812;4.934;2023-04-09T05:20:48;5.20;99.90
15834;DHT22;8017;50.812;4.934;2023-04-09T05:23:50;5.20;99.90
15834;DHT22;8017;50.812;4.934;2023-04-09T05:26:51;5.20;99.90
15834;DHT22;8017;50.812;4.934;2023-04-09T05:29:54;5.30;99.90
15834;DHT22;8017;50.812;4.934;2023-04-09T05:32:57;5.40;99.90
15834;DHT22;8017;50.812;4.934;2023-04-09T05:35:59;5.40;99.90
15834;DHT22;8017;50.812;4.934;2023-04-09T05:39:01;5.50;99.90
15834;DHT22;8017;50.812;4.934;2023-04-09T05:42:03;5.60;99.90
15834;DHT22;8017;50.812;4.934;2023-04-09T05:45:06;5.70;99.90
15834;DHT22;8017;50.812;4.934;2023-04-09T05:48:09;5.70;99.90
15834;DHT22;8017;50.812;4.934;2023-04-09T05:51:11;5.80;99.90
15834;DHT22;8017;50.812;4.934;2023-04-09T05:54:15;5.90;99.90
15834;DHT22;8017;50.812;4.934;2023-04-09T05:57:17;5.90;99.90
15834;DHT22;8017;50.812;4.934;2023-04-09T06:00:18;6.00;99.90
15834;DHT22;8017;50.812;4.934;2023-04-09T06:03:22;6.10;99.90
15834;DHT22;8017;50.812;4.934;2023-04-09T06:06:24;6.10;99.90
15834;DHT22;8017;50.812;4.934;2023-04-09T06:09:26;6.20;99.90
15834;DHT22;8017;50.812;4.934;2023-04-09T06:12:28;6.30;99.90
15834;DHT22;8017;50.812;4.934;2023-04-09T06:15:30;6.30;99.90
15834;DHT22;8017;50.812;4.934;2023-04-09T06:18:33;6.40;99.90
15834;DHT22;8017;50.812;4.934;2023-04-09T06:21:35;6.40;99.90
15834;DHT22;8017;50.812;4.934;2023-04-09T06:24:37;6.50;99.90
15834;DHT22;8017;50.812;4.934;2023-04-09T06:27:39;6.50;99.90
15834;DHT22;8017;50.812;4.934;2023-04-09T06:30:41;6.70;99.90
15834;DHT22;8017;50.812;4.934;2023-04-09T06:33:44;6.70;99.90
15834;DHT22;8017;50.812;4.934;2023-04-09T06:36:46;6.70;99.90
15834;DHT22;8017;50.812;4.934;2023-04-09T06:39:48;6.80;99.90
15834;DHT22;8017;50.812;4.934;2023-04-09T06:42:49;6.90;99.90
15834;DHT22;8017;50.812;4.934;2023-04-09T06:45:51;6.90;99.90
15834;DHT22;8017;50.812;4.934;2023-04-09T06:48:54;7.00;99.90
15834;DHT22;8017;50.812;4.934;2023-04-09T06:51:56;7.10;99.90
15834;DHT22;8017;50.812;4.934;2023-04-09T06:54:58;7.10;99.90
15834;DHT22;8017;50.812;4.934;2023-04-09T06:58:00;7.20;99.90
15834;DHT22;8017;50.812;4.934;2023-04-09T07:01:03;7.30;99.90
15834;DHT22;8017;50.812;4.934;2023-04-09T07:04:06;7.40;99.90
15834;DHT22;8017;50.812;4.934;2023-04-09T07:07:08;7.50;99.90
15834;DHT22;8017;50.812;4.934;2023-04-09T07:10:10;7.60;99.90
15834;DHT22;8017;50.812;4.934;2023-04-09T07:13:12;7.70;99.90
15834;DHT22;8017;50.812;4.934;2023-04-09T07:16:14;7.90;99.90
15834;DHT22;8017;50.812;4.934;2023-04-09T07:19:17;8.00;99.90
15834;DHT22;8017;50.812;4.934;2023-04-09T07:22:20;8.00;99.90
15834;DHT22;8017;50.812;4.934;2023-04-09T07:25:22;8.20;99.90
15834;DHT22;8017;50.812;4.934;2023-04-09T07:28:24;8.30;99.90
15834;DHT22;8017;50.812;4.934;2023-04-09T07:31:26;8.40;99.90
15834;DHT22;8017;50.812;4.934;2023-04-09T07:34:29;8.50;99.90
15834;DHT22;8017;50.812;4.934;2023-04-09T07:37:31;8.50;99.90
15834;DHT22;8017;50.812;4.934;2023-04-09T07:40:34;8.60;99.90
15834;DHT22;8017;50.812;4.934;2023-04-09T07:43:36;8.80;99.90
15834;DHT22;8017;50.812;4.934;2023-04-09T07:46:38;8.80;99.90
15834;DHT22;8017;50.812;4.934;2023-04-09T07:49:42;9.00;99.90
15834;DHT22;8017;50.812;4.934;2023-04-09T07:52:44;9.10;99.90
15834;DHT22;8017;50.812;4.934;2023-04-09T07:55:46;9.20;99.90
15834;DHT22;8017;50.812;4.934;2023-04-09T07:58:48;9.30;99.90
15834;DHT22;8017;50.812;4.934;2023-04-09T08:01:50;9.30;99.90
15834;DHT22;8017;50.812;4.934;2023-04-09T08:04:53;9.40;99.90
15834;DHT22;8017;50.812;4.934;2023-04-09T08:07:55;9.50;99.90
15834;DHT22;8017;50.812;4.934;2023-04-09T08:10:57;9.60;99.90
15834;DHT22;8017;50.812;4.934;2023-04-09T08:13:59;9.70;99.90
15834;DHT22;8017;50.812;4.934;2023-04-09T08:17:03;9.80;99.90
15834;DHT22;8017;50.812;4.934;2023-04-09T08:20:08;9.90;99.90
15834;DHT22;8017;50.812;4.934;2023-04-09T08:23:10;9.90;99.90
15834;DHT22;8017;50.812;4.934;2023-04-09T08:26:12;9.90;99.90
15834;DHT22;8017;50.812;4.934;2023-04-09T08:29:14;10.10;99.90
15834;DHT22;8017;50.812;4.934;2023-04-09T08:32:16;10.20;99.90
15834;DHT22;8017;50.812;4.934;2023-04-09T08:35:19;10.30;99.90
15834;DHT22;8017;50.812;4.934;2023-04-09T08:38:21;10.40;99.90
15834;DHT22;8017;50.812;4.934;2023-04-09T08:41:24;10.50;99.90
15834;DHT22;8017;50.812;4.934;2023-04-09T08:44:28;10.60;99.90
15834;DHT22;8017;50.812;4.934;2023-04-09T08:47:31;10.80;99.90
15834;DHT22;8017;50.812;4.934;2023-04-09T08:50:36;10.90;99.90
15834;DHT22;8017;50.812;4.934;2023-04-09T08:53:38;10.90;99.90
15834;DHT22;8017;50.812;4.934;2023-04-09T08:56:40;11.00;99.90
15834;DHT22;8017;50.812;4.934;2023-04-09T08:59:42;11.10;99.90
15834;DHT22;8017;50.812;4.934;2023-04-09T09:03:00;11.20;99.90
15834;DHT22;8017;50.812;4.934;2023-04-09T09:06:19;11.20;99.90
15834;DHT22;8017;50.812;4.934;2023-04-09T09:09:21;11.30;99.90
15834;DHT22;8017;50.812;4.934;2023-04-09T09:12:31;11.30;99.90
15834;DHT22;8017;50.812;4.934;2023-04-09T09:15:33;11.30;99.90
15834;DHT22;8017;50.812;4.934;2023-04-09T09:18:38;11.40;99.90
15834;DHT22;8017;50.812;4.934;2023-04-09T09:21:42;11.50;99.90
15834;DHT22;8017;50.812;4.934;2023-04-09T09:24:47;11.50;99.90
15834;DHT22;8017;50.812;4.934;2023-04-09T09:27:49;11.70;99.90
15834;DHT22;8017;50.812;4.934;2023-04-09T09:30:51;11.70;99.90
15834;DHT22;8017;50.812;4.934;2023-04-09T09:33:53;11.90;99.90
15834;DHT22;8017;50.812;4.934;2023-04-09T09:36:57;12.00;99.90
15834;DHT22;8017;50.812;4.934;2023-04-09T09:39:59;12.10;99.90
15834;DHT22;8017;50.812;4.934;2023-04-09T09:43:01;12.20;99.90
15834;DHT22;8017;50.812;4.934;2023-04-09T09:46:04;12.30;99.90
15834;DHT22;8017;50.812;4.934;2023-04-09T09:49:06;12.30;99.90
15834;DHT22;8017;50.812;4.934;2023-04-09T09:52:10;12.30;99.90
15834;DHT22;8017;50.812;4.934;2023-04-09T09:55:13;12.20;99.90
15834;DHT22;8017;50.812;4.934;2023-04-09T09:58:18;12.40;99.90
15834;DHT22;8017;50.812;4.934;2023-04-09T10:01:25;12.60;99.90
15834;DHT22;8017;50.812;4.934;2023-04-09T10:04:29;12.80;99.90
15834;DHT22;8017;50.812;4.934;2023-04-09T10:07:36;12.80;99.90
15834;DHT22;8017;50.812;4.934;2023-04-09T10:10:39;12.80;99.90
15834;DHT22;8017;50.812;4.934;2023-04-09T10:13:50;12.80;99.90
15834;DHT22;8017;50.812;4.934;2023-04-09T10:16:53;12.90;99.90
15834;DHT22;8017;50.812;4.934;2023-04-09T10:20:00;13.10;99.90
15834;DHT22;8017;50.812;4.934;2023-04-09T10:23:23;13.20;99.90
15834;DHT22;8017;50.812;4.934;2023-04-09T10:26:27;13.20;99.90
15834;DHT22;8017;50.812;4.934;2023-04-09T10:29:30;13.30;99.90
15834;DHT22;8017;50.812;4.934;2023-04-09T10:32:34;13.40;99.90
15834;DHT22;8017;50.812;4.934;2023-04-09T10:35:36;13.60;99.90
15834;DHT22;8017;50.812;4.934;2023-04-09T10:38:44;13.80;99.90
15834;DHT22;8017;50.812;4.934;2023-04-09T10:41:49;13.90;99.90
15834;DHT22;8017;50.812;4.934;2023-04-09T10:45:04;14.10;99.90
15834;DHT22;8017;50.812;4.934;2023-04-09T10:48:10;14.30;99.90
15834;DHT22;8017;50.812;4.934;2023-04-09T10:51:18;14.60;99.90
15834;DHT22;8017;50.812;4.934;2023-04-09T10:54:41;14.70;99.90
15834;DHT22;8017;50.812;4.934;2023-04-09T10:57:46;14.80;99.90
15834;DHT22;8017;50.812;4.934;2023-04-09T11:00:50;14.70;99.90
15834;DHT22;8017;50.812;4.934;2023-04-09T11:04:07;14.80;99.90
15834;DHT22;8017;50.812;4.934;2023-04-09T11:07:09;15.10;99.90
15834;DHT22;8017;50.812;4.934;2023-04-09T11:10:12;15.20;99.90
15834;DHT22;8017;50.812;4.934;2023-04-09T11:13:16;15.00;99.90
15834;DHT22;8017;50.812;4.934;2023-04-09T11:16:18;15.00;99.90
15834;DHT22;8017;50.812;4.934;2023-04-09T11:19:20;15.10;99.90
15834;DHT22;8017;50.812;4.934;2023-04-09T11:22:22;15.30;99.90
15834;DHT22;8017;50.812;4.934;2023-04-09T11:25:27;15.60;99.90
15834;DHT22;8017;50.812;4.934;2023-04-09T11:28:29;15.80;99.90
15834;DHT22;8017;50.812;4.934;2023-04-09T11:31:31;16.30;99.90
15834;DHT22;8017;50.812;4.934;2023-04-09T11:34:32;16.90;99.90
15834;DHT22;8017;50.812;4.934;2023-04-09T11:37:35;16.90;99.90
15834;DHT22;8017;50.812;4.934;2023-04-09T11:40:41;16.70;99.90
15834;DHT22;8017;50.812;4.934;2023-04-09T11:43:50;16.60;99.90
15834;DHT22;8017;50.812;4.934;2023-04-09T11:46:52;16.70;99.90
15834;DHT22;8017;50.812;4.934;2023-04-09T11:49:55;16.90;99.90
15834;DHT22;8017;50.812;4.934;2023-04-09T11:52:58;17.00;99.90
15834;DHT22;8017;50.812;4.934;2023-04-09T11:56:01;17.30;99.90
15834;DHT22;8017;50.812;4.934;2023-04-09T11:59:03;17.20;99.90
15834;DHT22;8017;50.812;4.934;2023-04-09T12:02:06;17.00;99.90
15834;DHT22;8017;50.812;4.934;2023-04-09T12:05:09;17.20;99.90
15834;DHT22;8017;50.812;4.934;2023-04-09T12:08:12;17.30;99.90
15834;DHT22;8017;50.812;4.934;2023-04-09T12:11:17;17.60;99.90
15834;DHT22;8017;50.812;4.934;2023-04-09T12:14:20;17.90;99.90
15834;DHT22;8017;50.812;4.934;2023-04-09T12:17:22;18.40;99.90
15834;DHT22;8017;50.812;4.934;2023-04-09T12:20:26;18.40;99.90
15834;DHT22;8017;50.812;4.934;2023-04-09T12:23:28;18.30;99.90
15834;DHT22;8017;50.812;4.934;2023-04-09T12:26:32;18.20;99.90
15834;DHT22;8017;50.812;4.934;2023-04-09T12:29:34;17.90;99.90
15834;DHT22;8017;50.812;4.934;2023-04-09T12:32:36;17.70;99.90
15834;DHT22;8017;50.812;4.934;2023-04-09T12:35:38;17.70;99.90
15834;DHT22;8017;50.812;4.934;2023-04-09T12:38:40;17.60;99.90
15834;DHT22;8017;50.812;4.934;2023-04-09T12:41:43;17.70;99.90
15834;DHT22;8017;50.812;4.934;2023-04-09T12:44:47;17.90;99.90
15834;DHT22;8017;50.812;4.934;2023-04-09T12:47:49;18.10;99.90
15834;DHT22;8017;50.812;4.934;2023-04-09T12:50:53;18.00;99.90
15834;DHT22;8017;50.812;4.934;2023-04-09T12:53:57;18.40;99.90
15834;DHT22;8017;50.812;4.934;2023-04-09T12:57:00;18.20;99.90
15834;DHT22;8017;50.812;4.934;2023-04-09T13:00:03;18.10;99.90
15834;DHT22;8017;50.812;4.934;2023-04-09T13:03:05;18.40;99.90
15834;DHT22;8017;50.812;4.934;2023-04-09T13:06:07;18.50;99.90
15834;DHT22;8017;50.812;4.934;2023-04-09T13:09:09;18.30;99.90
15834;DHT22;8017;50.812;4.934;2023-04-09T13:12:12;17.90;99.90
15834;DHT22;8017;50.812;4.934;2023-04-09T13:15:15;17.80;99.90
15834;DHT22;8017;50.812;4.934;2023-04-09T13:18:17;17.70;99.90
15834;DHT22;8017;50.812;4.934;2023-04-09T13:21:19;17.70;99.90
15834;DHT22;8017;50.812;4.934;2023-04-09T13:24:21;17.80;99.90
15834;DHT22;8017;50.812;4.934;2023-04-09T13:27:24;18.00;99.90
15834;DHT22;8017;50.812;4.934;2023-04-09T13:30:26;17.90;99.90
15834;DHT22;8017;50.812;4.934;2023-04-09T13:33:28;17.60;99.90
15834;DHT22;8017;50.812;4.934;2023-04-09T13:36:30;17.70;99.90
15834;DHT22;8017;50.812;4.934;2023-04-09T13:39:32;17.60;99.90
15834;DHT22;8017;50.812;4.934;2023-04-09T13:42:35;17.50;99.90
15834;DHT22;8017;50.812;4.934;2023-04-09T13:45:37;17.60;99.90
15834;DHT22;8017;50.812;4.934;2023-04-09T13:48:39;17.80;99.90
15834;DHT22;8017;50.812;4.934;2023-04-09T13:51:41;18.10;99.90
15834;DHT22;8017;50.812;4.934;2023-04-09T13:54:44;18.10;99.90
15834;DHT22;8017;50.812;4.934;2023-04-09T13:57:47;18.10;99.90
15834;DHT22;8017;50.812;4.934;2023-04-09T14:00:49;18.10;99.90
15834;DHT22;8017;50.812;4.934;2023-04-09T14:03:52;18.20;99.90
15834;DHT22;8017;50.812;4.934;2023-04-09T14:06:54;18.30;99.90
15834;DHT22;8017;50.812;4.934;2023-04-09T14:09:56;18.20;99.90
15834;DHT22;8017;50.812;4.934;2023-04-09T14:13:00;18.30;99.90
15834;DHT22;8017;50.812;4.934;2023-04-09T14:16:06;18.40;99.90
15834;DHT22;8017;50.812;4.934;2023-04-09T14:19:08;18.50;99.90
15834;DHT22;8017;50.812;4.934;2023-04-09T14:22:10;18.40;99.90
15834;DHT22;8017;50.812;4.934;2023-04-09T14:25:12;18.40;99.90
15834;DHT22;8017;50.812;4.934;2023-04-09T14:28:16;18.40;99.90
15834;DHT22;8017;50.812;4.934;2023-04-09T14:31:18;18.50;99.90
15834;DHT22;8017;50.812;4.934;2023-04-09T14:34:20;18.60;99.90
15834;DHT22;8017;50.812;4.934;2023-04-09T14:37:22;18.80;99.90
15834;DHT22;8017;50.812;4.934;2023-04-09T14:40:24;18.60;99.90
15834;DHT22;8017;50.812;4.934;2023-04-09T14:43:28;18.30;99.90
15834;DHT22;8017;50.812;4.934;2023-04-09T14:46:30;18.00;99.90
15834;DHT22;8017;50.812;4.934;2023-04-09T14:49:32;17.70;99.90
15834;DHT22;8017;50.812;4.934;2023-04-09T14:52:33;17.70;99.90
15834;DHT22;8017;50.812;4.934;2023-04-09T14:55:35;17.90;99.90
15834;DHT22;8017;50.812;4.934;2023-04-09T14:58:38;18.10;99.90
15834;DHT22;8017;50.812;4.934;2023-04-09T15:01:40;18.10;99.90
15834;DHT22;8017;50.812;4.934;2023-04-09T15:04:42;18.00;99.90
15834;DHT22;8017;50.812;4.934;2023-04-09T15:07:44;18.10;99.90
15834;DHT22;8017;50.812;4.934;2023-04-09T15:10:46;18.20;99.90
15834;DHT22;8017;50.812;4.934;2023-04-09T15:13:50;18.30;99.90
15834;DHT22;8017;50.812;4.934;2023-04-09T15:16:52;18.30;99.90
15834;DHT22;8017;50.812;4.934;2023-04-09T15:19:55;18.00;99.90
15834;DHT22;8017;50.812;4.934;2023-04-09T15:22:57;17.90;99.90
15834;DHT22;8017;50.812;4.934;2023-04-09T15:25:59;17.90;99.90
15834;DHT22;8017;50.812;4.934;2023-04-09T15:29:04;17.80;99.90
15834;DHT22;8017;50.812;4.934;2023-04-09T15:32:07;17.70;99.90
15834;DHT22;8017;50.812;4.934;2023-04-09T15:35:09;17.70;99.90
15834;DHT22;8017;50.812;4.934;2023-04-09T15:38:13;17.80;99.90
15834;DHT22;8017;50.812;4.934;2023-04-09T15:41:15;17.90;99.90
15834;DHT22;8017;50.812;4.934;2023-04-09T15:44:18;17.90;99.90
15834;DHT22;8017;50.812;4.934;2023-04-09T15:47:20;17.80;99.90
15834;DHT22;8017;50.812;4.934;2023-04-09T15:50:22;17.80;99.90
15834;DHT22;8017;50.812;4.934;2023-04-09T15:53:24;17.80;99.90
15834;DHT22;8017;50.812;4.934;2023-04-09T15:56:28;17.80;99.90
15834;DHT22;8017;50.812;4.934;2023-04-09T15:59:31;17.80;99.90
15834;DHT22;8017;50.812;4.934;2023-04-09T16:02:33;17.80;99.90
15834;DHT22;8017;50.812;4.934;2023-04-09T16:05:38;17.80;99.90
15834;DHT22;8017;50.812;4.934;2023-04-09T16:08:40;18.00;99.90
15834;DHT22;8017;50.812;4.934;2023-04-09T16:11:42;18.30;99.90
15834;DHT22;8017;50.812;4.934;2023-04-09T16:14:45;18.60;99.90
15834;DHT22;8017;50.812;4.934;2023-04-09T16:17:47;18.70;99.90
15834;DHT22;8017;50.812;4.934;2023-04-09T16:20:51;18.80;99.90
15834;DHT22;8017;50.812;4.934;2023-04-09T16:23:53;19.00;99.90
15834;DHT22;8017;50.812;4.934;2023-04-09T16:26:55;18.90;99.90
15834;DHT22;8017;50.812;4.934;2023-04-09T16:29:59;18.80;99.90
15834;DHT22;8017;50.812;4.934;2023-04-09T16:33:01;19.00;99.90
15834;DHT22;8017;50.812;4.934;2023-04-09T16:36:03;19.40;99.90
15834;DHT22;8017;50.812;4.934;2023-04-09T16:39:05;19.70;99.90
15834;DHT22;8017;50.812;4.934;2023-04-09T16:42:07;19.90;99.90
15834;DHT22;8017;50.812;4.934;2023-04-09T16:45:12;20.00;99.90
15834;DHT22;8017;50.812;4.934;2023-04-09T16:48:13;20.30;99.90
15834;DHT22;8017;50.812;4.934;2023-04-09T16:51:15;20.30;99.90
15834;DHT22;8017;50.812;4.934;2023-04-09T16:54:17;20.10;99.90
15834;DHT22;8017;50.812;4.934;2023-04-09T16:57:19;20.00;99.90
15834;DHT22;8017;50.812;4.934;2023-04-09T17:00:22;19.90;99.90
15834;DHT22;8017;50.812;4.934;2023-04-09T17:03:24;19.60;99.90
15834;DHT22;8017;50.812;4.934;2023-04-09T17:06:26;19.50;99.90
15834;DHT22;8017;50.812;4.934;2023-04-09T17:09:29;19.40;99.90
15834;DHT22;8017;50.812;4.934;2023-04-09T17:12:31;19.20;99.90
15834;DHT22;8017;50.812;4.934;2023-04-09T17:15:35;19.00;99.90
15834;DHT22;8017;50.812;4.934;2023-04-09T17:18:37;19.10;99.90
15834;DHT22;8017;50.812;4.934;2023-04-09T17:21:39;18.90;99.90
15834;DHT22;8017;50.812;4.934;2023-04-09T17:24:41;18.70;99.90
15834;DHT22;8017;50.812;4.934;2023-04-09T17:27:43;18.60;99.90
15834;DHT22;8017;50.812;4.934;2023-04-09T17:30:46;18.70;99.90
15834;DHT22;8017;50.812;4.934;2023-04-09T17:33:49;18.80;99.90
15834;DHT22;8017;50.812;4.934;2023-04-09T17:36:51;18.70;99.90
15834;DHT22;8017;50.812;4.934;2023-04-09T17:39:56;18.40;99.90
15834;DHT22;8017;50.812;4.934;2023-04-09T17:42:58;18.10;99.90
15834;DHT22;8017;50.812;4.934;2023-04-09T17:46:02;17.70;99.90
15834;DHT22;8017;50.812;4.934;2023-04-09T17:49:04;17.30;99.90
15834;DHT22;8017;50.812;4.934;2023-04-09T17:52:05;16.90;99.90
15834;DHT22;8017;50.812;4.934;2023-04-09T17:55:09;16.60;99.90
15834;DHT22;8017;50.812;4.934;2023-04-09T17:58:11;16.30;99.90
15834;DHT22;8017;50.812;4.934;2023-04-09T18:01:15;16.10;99.90
15834;DHT22;8017;50.812;4.934;2023-04-09T18:04:17;15.80;99.90
15834;DHT22;8017;50.812;4.934;2023-04-09T18:07:18;15.60;99.90
15834;DHT22;8017;50.812;4.934;2023-04-09T18:10:20;15.40;99.90
15834;DHT22;8017;50.812;4.934;2023-04-09T18:13:22;15.20;99.90
15834;DHT22;8017;50.812;4.934;2023-04-09T18:16:27;15.00;99.90
15834;DHT22;8017;50.812;4.934;2023-04-09T18:19:28;14.90;99.90
15834;DHT22;8017;50.812;4.934;2023-04-09T18:22:30;14.70;99.90
15834;DHT22;8017;50.812;4.934;2023-04-09T18:25:34;14.50;99.90
15834;DHT22;8017;50.812;4.934;2023-04-09T18:28:37;14.30;99.90
15834;DHT22;8017;50.812;4.934;2023-04-09T18:31:40;14.20;99.90
15834;DHT22;8017;50.812;4.934;2023-04-09T18:34:42;14.10;99.90
15834;DHT22;8017;50.812;4.934;2023-04-09T18:37:45;13.90;99.90
15834;DHT22;8017;50.812;4.934;2023-04-09T18:40:47;13.80;99.90
15834;DHT22;8017;50.812;4.934;2023-04-09T18:43:49;13.70;99.90
15834;DHT22;8017;50.812;4.934;2023-04-09T18:46:52;13.50;99.90
15834;DHT22;8017;50.812;4.934;2023-04-09T18:49:54;13.50;99.90
15834;DHT22;8017;50.812;4.934;2023-04-09T18:52:56;13.50;99.90
15834;DHT22;8017;50.812;4.934;2023-04-09T18:55:58;13.50;99.90
15834;DHT22;8017;50.812;4.934;2023-04-09T18:59:00;13.40;99.90
15834;DHT22;8017;50.812;4.934;2023-04-09T19:02:03;13.30;99.90
15834;DHT22;8017;50.812;4.934;2023-04-09T19:05:06;13.20;99.90
15834;DHT22;8017;50.812;4.934;2023-04-09T19:08:08;13.10;99.90
15834;DHT22;8017;50.812;4.934;2023-04-09T19:11:10;13.10;99.90
15834;DHT22;8017;50.812;4.934;2023-04-09T19:14:12;13.00;99.90
15834;DHT22;8017;50.812;4.934;2023-04-09T19:17:15;12.90;99.90
15834;DHT22;8017;50.812;4.934;2023-04-09T19:20:17;12.90;99.90
15834;DHT22;8017;50.812;4.934;2023-04-09T19:23:19;12.80;99.90
15834;DHT22;8017;50.812;4.934;2023-04-09T19:26:21;12.80;99.90
15834;DHT22;8017;50.812;4.934;2023-04-09T19:29:23;12.70;99.90
15834;DHT22;8017;50.812;4.934;2023-04-09T19:32:26;12.60;99.90
15834;DHT22;8017;50.812;4.934;2023-04-09T19:35:28;12.40;99.90
15834;DHT22;8017;50.812;4.934;2023-04-09T19:38:32;12.40;99.90
15834;DHT22;8017;50.812;4.934;2023-04-09T19:41:34;12.30;99.90
15834;DHT22;8017;50.812;4.934;2023-04-09T19:44:36;12.30;99.90